Terminal Aerodrome Forecast
Issued by NWS Wilmington, OH

Current Version | Previous Version | Text Only | Print | Product List | Glossary Off
Versions: 1 2 3 4 5 6 7 8 9 10 11 12 13 14 15 16 17 18 19 20

000
FTUS41 KILN 250500 RRA
TAFILN
TAF
KILN 250542Z 2506/2606 24013KT P6SM FEW060
     FM251400 25012G20KT P6SM BKN035
     FM252100 27010KT P6SM BKN035
     FM252300 VRB03KT P6SM BKN035=

USA.gov is the U.S. government's official web portal to all federal, state and local government web resources and services.